Time;durP1;ratioP1;P1;durP2;ratioP2;P2;SDS_P1;SDS_P2;PMS_P1;PMS_P2;Temp;Humidity;BMP_temperature;BMP_pressure;BME280_temperature;BME280_humidity;BME280_pressure;Samples;Min_cycle;Max_cycle;Signal;HPM_P1;HPM_P2
2022/09/15 00:01:27;;;;;;;;;1.75;1.75;;;;;;;;5054573;28;45347;-73
2022/09/15 00:03:53;;;;;;;;;3.00;3.00;;;;;;;;5056560;28;45608;-75
2022/09/15 00:06:19;;;;;;;;;2.00;2.00;;;;;;;;5074860;28;45438;-71
2022/09/15 00:08:44;;;;;;;;;1.00;1.00;;;;;;;;5074817;28;45351;-70
2022/09/15 00:11:21;;;;;;;;;1.00;1.00;;;;;;;;5074789;28;45321;-72
2022/09/15 00:13:47;;;;;;;;;2.00;2.00;;;;;;;;5075068;28;45405;-71
2022/09/15 00:16:12;;;;;;;;;0.00;0.00;;;;;;;;5074689;28;46188;-72
2022/09/15 00:18:38;;;;;;;;;0.00;0.00;;;;;;;;5074525;28;45464;-71
2022/09/15 00:21:05;;;;;;;;;2.00;2.00;;;;;;;;5074502;28;45450;-73
2022/09/15 00:23:30;;;;;;;;;0.75;0.75;;;;;;;;5074696;28;45372;-71
2022/09/15 00:25:55;;;;;;;;;3.00;3.00;;;;;;;;5074513;28;45494;-68
2022/09/15 00:28:21;;;;;;;;;2.00;2.00;;;;;;;;5074415;28;45642;-70
2022/09/15 00:30:48;;;;;;;;;3.00;3.00;;;;;;;;5075789;28;45505;-75
2022/09/15 00:33:15;;;;;;;;;4.00;4.00;;;;;;;;5075074;27;45501;-74
2022/09/15 00:35:41;;;;;;;;;5.00;5.00;;;;;;;;5074602;28;46379;-74
2022/09/15 00:38:07;;;;;;;;;4.00;4.00;;;;;;;;5066617;28;45285;-69
2022/09/15 00:40:33;;;;;;;;;3.50;3.50;;;;;;;;5054801;28;45365;-72
2022/09/15 00:42:58;;;;;;;;;5.00;5.00;;;;;;;;5054249;28;45339;-71
2022/09/15 00:45:24;;;;;;;;;2.25;2.25;;;;;;;;5035719;28;47451;-72
2022/09/15 00:47:50;;;;;;;;;3.00;3.00;;;;;;;;5054402;28;45428;-70
2022/09/15 00:50:17;;;;;;;;;3.50;3.50;;;;;;;;5056290;28;45343;-71
2022/09/15 00:52:47;;;;;;;;;4.00;4.00;;;;;;;;5055089;28;45412;-70
2022/09/15 00:55:16;;;;;;;;;5.25;5.25;;;;;;;;5065807;28;45393;-71
2022/09/15 00:57:44;;;;;;;;;4.25;4.25;;;;;;;;5055687;28;45324;-69
2022/09/15 01:00:11;;;;;;;;;7.75;7.75;;;;;;;;5055804;28;45325;-73
2022/09/15 01:02:37;;;;;;;;;7.25;7.25;;;;;;;;5074689;27;45248;-72
2022/09/15 01:05:06;;;;;;;;;7.00;7.00;;;;;;;;5073791;28;45390;-72
2022/09/15 01:07:34;;;;;;;;;9.00;9.00;;;;;;;;5074623;28;45303;-73
2022/09/15 01:10:01;;;;;;;;;10.00;10.00;;;;;;;;5075142;28;45521;-72
2022/09/15 01:12:27;;;;;;;;;9.50;9.50;;;;;;;;5074382;28;45454;-71
2022/09/15 01:14:52;;;;;;;;;10.00;10.00;;;;;;;;5073998;28;45344;-71
2022/09/15 01:17:18;;;;;;;;;10.00;10.00;;;;;;;;5074035;28;45430;-69
2022/09/15 01:20:16;;;;;;;;;9.50;9.50;;;;;;;;5074082;28;45445;-73
2022/09/15 01:22:43;;;;;;;;;8.00;8.00;;;;;;;;5050742;27;45487;-72
2022/09/15 01:25:28;;;;;;;;;8.50;8.50;;;;;;;;5074337;28;45433;-72
2022/09/15 01:27:56;;;;;;;;;7.50;7.50;;;;;;;;5073720;28;45416;-71
2022/09/15 01:30:22;;;;;;;;;9.25;9.25;;;;;;;;5073863;28;45339;-71
2022/09/15 01:33:06;;;;;;;;;9.75;9.75;;;;;;;;5074111;28;45390;-72
2022/09/15 01:35:36;;;;;;;;;9.00;9.00;;;;;;;;5077441;28;45469;-70
2022/09/15 01:38:07;;;;;;;;;7.75;7.75;;;;;;;;5070314;28;45216;-69
2022/09/15 01:40:36;;;;;;;;;7.25;7.00;;;;;;;;5057272;28;45456;-72
2022/09/15 01:43:02;;;;;;;;;7.75;7.75;;;;;;;;5057297;28;45204;-72
2022/09/15 01:45:29;;;;;;;;;7.50;7.50;;;;;;;;5062327;28;45292;-69
2022/09/15 01:47:57;;;;;;;;;8.50;8.50;;;;;;;;5077025;28;45444;-70
2022/09/15 01:50:24;;;;;;;;;11.25;9.50;;;;;;;;5077027;27;45434;-72
2022/09/15 01:52:52;;;;;;;;;9.00;9.00;;;;;;;;5076756;27;45373;-71
2022/09/15 01:55:22;;;;;;;;;7.00;7.00;;;;;;;;5076635;28;45845;-69
2022/09/15 01:57:47;;;;;;;;;9.75;9.75;;;;;;;;5076835;27;45351;-71
2022/09/15 02:00:13;;;;;;;;;11.00;11.00;;;;;;;;5077330;28;45291;-69
2022/09/15 02:02:42;;;;;;;;;8.50;8.50;;;;;;;;5077636;27;45217;-70
2022/09/15 02:05:15;;;;;;;;;10.25;10.25;;;;;;;;5077383;28;45477;-73
2022/09/15 02:07:50;;;;;;;;;7.50;7.50;;;;;;;;5066428;27;45364;-72
2022/09/15 02:10:23;;;;;;;;;5.50;5.50;;;;;;;;5069399;28;45406;-73
2022/09/15 02:12:53;;;;;;;;;8.00;8.00;;;;;;;;5056319;28;45488;-72
2022/09/15 02:15:27;;;;;;;;;5.50;5.50;;;;;;;;5055017;28;45519;-72
2022/09/15 02:17:54;;;;;;;;;7.00;7.00;;;;;;;;5056244;28;45406;-71
2022/09/15 02:20:38;;;;;;;;;7.25;7.25;;;;;;;;5056876;28;45361;-72
2022/09/15 02:23:07;;;;;;;;;10.25;10.25;;;;;;;;5056522;28;45576;-73
2022/09/15 02:25:39;;;;;;;;;12.75;12.75;;;;;;;;5056470;28;46667;-73
2022/09/15 02:28:06;;;;;;;;;14.75;14.75;;;;;;;;5056597;28;45353;-73
2022/09/15 02:30:32;;;;;;;;;16.00;16.00;;;;;;;;5056973;28;45341;-71
2022/09/15 02:32:59;;;;;;;;;15.50;15.50;;;;;;;;5056700;28;45262;-72
2022/09/15 02:35:27;;;;;;;;;14.25;14.25;;;;;;;;5056537;28;45273;-73
2022/09/15 02:37:53;;;;;;;;;16.50;16.00;;;;;;;;5056208;28;45414;-70
2022/09/15 02:40:19;;;;;;;;;16.00;16.00;;;;;;;;5056575;28;45395;-70
2022/09/15 02:42:52;;;;;;;;;17.25;17.25;;;;;;;;5060134;28;45434;-71
2022/09/15 02:45:18;;;;;;;;;14.25;14.25;;;;;;;;5054069;28;46532;-72
2022/09/15 02:47:44;;;;;;;;;14.50;14.50;;;;;;;;5054846;28;45467;-71
2022/09/15 02:50:10;;;;;;;;;17.50;17.50;;;;;;;;5056666;28;45542;-71
2022/09/15 02:52:35;;;;;;;;;16.75;16.75;;;;;;;;5056977;28;45485;-71
2022/09/15 02:55:00;;;;;;;;;16.25;15.75;;;;;;;;5056240;28;46461;-72
2022/09/15 02:57:26;;;;;;;;;20.25;20.00;;;;;;;;5056250;28;45506;-71
2022/09/15 03:02:35;;;;;;;;;19.75;19.75;;;;;;;;5056593;28;45391;-71
2022/09/15 03:05:01;;;;;;;;;18.75;18.75;;;;;;;;5056087;28;45524;-72
2022/09/15 03:07:27;;;;;;;;;19.75;19.75;;;;;;;;5056130;28;45339;-73
2022/09/15 03:09:52;;;;;;;;;22.00;22.00;;;;;;;;5056591;28;45281;-71
2022/09/15 03:12:17;;;;;;;;;20.50;20.50;;;;;;;;5056195;28;45581;-73
2022/09/15 03:14:43;;;;;;;;;22.50;22.50;;;;;;;;5037530;28;46496;-71
2022/09/15 03:17:08;;;;;;;;;21.50;21.50;;;;;;;;5056347;28;45206;-72
2022/09/15 03:19:33;;;;;;;;;24.50;24.50;;;;;;;;5056723;28;45488;-72
2022/09/15 03:21:58;;;;;;;;;24.25;24.25;;;;;;;;5038839;28;45426;-73
2022/09/15 03:24:24;;;;;;;;;22.25;21.75;;;;;;;;5056586;28;45323;-71
2022/09/15 03:26:49;;;;;;;;;21.00;21.00;;;;;;;;5056341;28;45441;-71
2022/09/15 03:29:14;;;;;;;;;23.00;23.00;;;;;;;;5056319;28;45252;-72
2022/09/15 03:31:40;;;;;;;;;22.00;21.75;;;;;;;;5056589;28;45643;-73
2022/09/15 03:34:05;;;;;;;;;17.50;17.50;;;;;;;;5056470;28;46079;-71
2022/09/15 03:36:30;;;;;;;;;23.75;23.75;;;;;;;;5056192;28;45314;-72
2022/09/15 03:38:59;;;;;;;;;19.25;19.25;;;;;;;;5055952;28;45315;-72
2022/09/15 03:41:24;;;;;;;;;22.50;21.50;;;;;;;;5055745;28;45622;-70
2022/09/15 03:43:50;;;;;;;;;20.25;20.25;;;;;;;;5055394;28;45449;-72
2022/09/15 03:46:16;;;;;;;;;20.25;20.25;;;;;;;;5055867;28;45453;-73
2022/09/15 03:48:42;;;;;;;;;21.25;20.00;;;;;;;;5037887;28;45216;-72
2022/09/15 03:51:09;;;;;;;;;20.25;20.00;;;;;;;;5055756;28;45505;-71
2022/09/15 03:53:36;;;;;;;;;18.25;18.25;;;;;;;;5055124;28;45688;-73
2022/09/15 03:56:09;;;;;;;;;16.75;16.75;;;;;;;;5050085;28;45510;-72
2022/09/15 03:58:34;;;;;;;;;17.50;17.50;;;;;;;;5069859;28;45339;-73
2022/09/15 04:01:00;;;;;;;;;17.25;17.25;;;;;;;;5050284;28;45333;-75
2022/09/15 04:03:25;;;;;;;;;19.00;19.00;;;;;;;;5077604;27;46366;-74
2022/09/15 04:05:50;;;;;;;;;19.50;18.75;;;;;;;;5075098;28;45302;-76
2022/09/15 04:08:15;;;;;;;;;18.25;18.25;;;;;;;;5075307;28;45440;-74
2022/09/15 04:10:40;;;;;;;;;17.00;17.00;;;;;;;;5074368;28;45571;-81
2022/09/15 04:13:06;;;;;;;;;17.75;17.75;;;;;;;;5075650;27;46592;-78
2022/09/15 04:15:31;;;;;;;;;18.25;18.25;;;;;;;;5075955;27;45301;-79
2022/09/15 04:17:57;;;;;;;;;19.00;18.50;;;;;;;;5075442;27;45367;-82
2022/09/15 04:20:22;;;;;;;;;19.25;19.25;;;;;;;;5077079;28;45530;-81
2022/09/15 04:22:47;;;;;;;;;18.25;18.25;;;;;;;;5077411;28;45657;-81
2022/09/15 04:25:12;;;;;;;;;15.75;15.75;;;;;;;;5075717;28;45419;-81
2022/09/15 04:27:38;;;;;;;;;18.50;18.50;;;;;;;;5076128;28;45319;-82
2022/09/15 04:30:04;;;;;;;;;23.00;22.25;;;;;;;;5075186;28;45348;-82
2022/09/15 04:32:29;;;;;;;;;15.75;15.75;;;;;;;;5075998;28;46326;-84
2022/09/15 04:34:54;;;;;;;;;21.25;21.25;;;;;;;;5076921;28;45222;-80
2022/09/15 04:37:20;;;;;;;;;20.75;20.75;;;;;;;;5077320;28;45377;-79
2022/09/15 04:39:45;;;;;;;;;19.75;19.75;;;;;;;;5075812;28;45551;-79
2022/09/15 04:42:10;;;;;;;;;24.25;24.25;;;;;;;;5076544;28;45540;-79
2022/09/15 04:44:35;;;;;;;;;19.50;19.50;;;;;;;;5077020;28;45441;-81
2022/09/15 04:47:01;;;;;;;;;21.00;21.00;;;;;;;;5059350;27;45471;-80
2022/09/15 04:49:27;;;;;;;;;18.25;18.25;;;;;;;;5076247;27;45352;-82
2022/09/15 04:51:52;;;;;;;;;14.50;14.50;;;;;;;;5076082;27;45431;-81
2022/09/15 04:54:18;;;;;;;;;12.75;12.75;;;;;;;;5076209;28;45204;-81
2022/09/15 04:56:44;;;;;;;;;22.50;22.50;;;;;;;;5077484;27;46468;-80
2022/09/15 04:59:14;;;;;;;;;20.75;20.00;;;;;;;;5064216;28;45308;-80
2022/09/15 05:01:39;;;;;;;;;21.75;21.75;;;;;;;;5075482;27;45408;-78
2022/09/15 05:04:04;;;;;;;;;20.50;20.50;;;;;;;;5072180;27;45445;-78
2022/09/15 05:06:30;;;;;;;;;20.75;20.75;;;;;;;;5074584;27;46171;-76
2022/09/15 05:08:56;;;;;;;;;18.50;18.50;;;;;;;;5082952;27;45316;-77
2022/09/15 05:11:22;;;;;;;;;21.25;21.25;;;;;;;;5086049;27;45585;-75
2022/09/15 05:13:48;;;;;;;;;17.75;17.75;;;;;;;;5065566;28;45342;-77
2022/09/15 05:16:18;;;;;;;;;16.00;15.75;;;;;;;;5080283;27;45559;-75
2022/09/15 05:18:44;;;;;;;;;17.25;17.25;;;;;;;;5078255;27;45557;-81
2022/09/15 05:21:10;;;;;;;;;16.25;16.25;;;;;;;;5078781;27;45368;-76
2022/09/15 05:23:36;;;;;;;;;12.75;12.75;;;;;;;;5078839;28;45319;-79
2022/09/15 05:26:04;;;;;;;;;13.00;13.00;;;;;;;;5059964;28;45398;-77
2022/09/15 05:28:31;;;;;;;;;12.00;12.00;;;;;;;;5079106;27;45402;-80
2022/09/15 05:30:56;;;;;;;;;13.00;12.75;;;;;;;;5078880;27;46364;-76
2022/09/15 05:33:22;;;;;;;;;12.75;12.75;;;;;;;;5084110;27;45465;-76
2022/09/15 05:35:50;;;;;;;;;7.50;7.50;;;;;;;;5082966;27;45776;-76
2022/09/15 05:38:16;;;;;;;;;13.00;13.00;;;;;;;;5079614;27;45612;-79
2022/09/15 05:40:41;;;;;;;;;15.00;15.00;;;;;;;;5078752;27;45759;-80
2022/09/15 05:43:06;;;;;;;;;12.00;12.00;;;;;;;;5059265;27;45348;-77
2022/09/15 05:45:32;;;;;;;;;16.00;16.00;;;;;;;;5079268;27;45458;-78
2022/09/15 05:47:57;;;;;;;;;18.75;18.25;;;;;;;;5080820;28;45536;-76
2022/09/15 05:50:22;;;;;;;;;14.00;14.00;;;;;;;;5078102;27;46424;-76
2022/09/15 05:52:50;;;;;;;;;22.25;22.25;;;;;;;;5060609;27;45786;-76
2022/09/15 05:55:16;;;;;;;;;19.25;19.25;;;;;;;;5061435;28;45437;-79
2022/09/15 05:57:41;;;;;;;;;22.00;22.00;;;;;;;;5070062;27;45219;-80
2022/09/15 06:00:07;;;;;;;;;15.25;15.25;;;;;;;;5074112;27;45478;-78
2022/09/15 06:02:32;;;;;;;;;20.75;20.25;;;;;;;;5080201;27;45446;-78
2022/09/15 06:04:57;;;;;;;;;17.25;17.25;;;;;;;;5078003;27;45499;-77
2022/09/15 06:07:22;;;;;;;;;22.25;22.25;;;;;;;;5069149;27;45301;-79
2022/09/15 06:09:48;;;;;;;;;21.00;21.00;;;;;;;;5078379;27;45314;-80
2022/09/15 06:12:14;;;;;;;;;20.00;19.50;;;;;;;;5077353;27;45407;-80
2022/09/15 06:14:41;;;;;;;;;15.00;14.25;;;;;;;;5083931;27;45698;-77
2022/09/15 06:17:07;;;;;;;;;19.00;19.00;;;;;;;;5063053;28;45485;-75
2022/09/15 06:19:32;;;;;;;;;24.50;24.50;;;;;;;;5075883;27;45423;-77
2022/09/15 06:21:57;;;;;;;;;19.00;19.00;;;;;;;;5064698;28;45343;-78
2022/09/15 06:24:23;;;;;;;;;25.00;24.00;;;;;;;;5077557;27;45426;-79
2022/09/15 06:26:48;;;;;;;;;20.25;20.25;;;;;;;;5077152;28;45303;-75
2022/09/15 06:29:13;;;;;;;;;20.75;20.75;;;;;;;;5074869;27;45557;-70
2022/09/15 06:31:39;;;;;;;;;19.00;18.00;;;;;;;;5078685;27;45513;-70
2022/09/15 06:34:05;;;;;;;;;22.25;21.50;;;;;;;;5076380;28;45314;-73
2022/09/15 06:36:31;;;;;;;;;27.75;27.75;;;;;;;;5075071;28;45339;-70
2022/09/15 06:38:57;;;;;;;;;27.50;27.50;;;;;;;;5075833;27;45340;-71
2022/09/15 06:41:22;;;;;;;;;25.75;24.25;;;;;;;;5075905;28;45460;-72
2022/09/15 06:43:48;;;;;;;;;27.50;25.50;;;;;;;;5079548;27;45439;-70
2022/09/15 06:46:15;;;;;;;;;24.25;23.75;;;;;;;;5077217;27;46121;-70
2022/09/15 06:48:41;;;;;;;;;25.50;25.50;;;;;;;;5074972;27;46321;-71
2022/09/15 06:51:07;;;;;;;;;23.50;23.25;;;;;;;;5087577;27;45305;-72
2022/09/15 06:53:33;;;;;;;;;26.50;26.50;;;;;;;;5076495;28;45371;-74
2022/09/15 06:56:03;;;;;;;;;23.25;23.25;;;;;;;;5061184;28;45569;-77
2022/09/15 06:58:28;;;;;;;;;28.50;27.25;;;;;;;;5070989;28;46632;-72
2022/09/15 07:00:54;;;;;;;;;30.25;28.75;;;;;;;;5076601;28;45443;-71
2022/09/15 07:03:19;;;;;;;;;31.75;30.25;;;;;;;;5076606;28;45311;-72
2022/09/15 07:05:45;;;;;;;;;30.25;30.00;;;;;;;;5077888;27;46797;-75
2022/09/15 07:08:10;;;;;;;;;24.50;24.50;;;;;;;;5060207;28;47446;-78
2022/09/15 07:10:35;;;;;;;;;25.50;25.50;;;;;;;;5075826;27;45413;-74
2022/09/15 07:13:02;;;;;;;;;27.50;27.50;;;;;;;;5093834;27;45491;-74
2022/09/15 07:15:27;;;;;;;;;29.25;27.50;;;;;;;;5085646;27;45517;-75
2022/09/15 07:17:52;;;;;;;;;28.75;28.50;;;;;;;;5094353;27;45505;-76
2022/09/15 07:20:17;;;;;;;;;26.25;25.25;;;;;;;;5094997;27;45269;-77
2022/09/15 07:22:43;;;;;;;;;28.75;28.75;;;;;;;;5083135;27;45394;-80
2022/09/15 07:25:08;;;;;;;;;31.00;29.25;;;;;;;;5070738;27;45509;-79
2022/09/15 07:27:34;;;;;;;;;41.50;36.50;;;;;;;;5058475;28;45569;-79
2022/09/15 07:30:01;;;;;;;;;26.00;26.00;;;;;;;;5056853;28;45297;-76
2022/09/15 07:32:26;;;;;;;;;38.00;32.50;;;;;;;;5055007;27;45267;-79
2022/09/15 07:34:51;;;;;;;;;32.25;31.25;;;;;;;;5073704;27;45645;-76
2022/09/15 07:37:17;;;;;;;;;27.25;27.25;;;;;;;;5056781;28;45404;-75
2022/09/15 07:39:42;;;;;;;;;32.00;30.50;;;;;;;;5074042;27;45521;-74
2022/09/15 07:42:07;;;;;;;;;36.25;33.50;;;;;;;;5073382;27;45571;-75
2022/09/15 07:44:32;;;;;;;;;31.25;30.25;;;;;;;;5073814;27;45519;-75
2022/09/15 07:46:58;;;;;;;;;27.50;27.50;;;;;;;;5081783;27;45630;-74
2022/09/15 07:49:23;;;;;;;;;30.75;30.00;;;;;;;;5075615;27;45317;-73
2022/09/15 07:51:48;;;;;;;;;40.00;34.75;;;;;;;;5075898;27;45425;-76
2022/09/15 07:54:14;;;;;;;;;32.75;31.50;;;;;;;;5075894;27;45574;-72
2022/09/15 07:56:39;;;;;;;;;35.75;32.75;;;;;;;;5071630;28;46547;-73
2022/09/15 07:59:04;;;;;;;;;34.00;32.00;;;;;;;;5074246;27;45400;-74
2022/09/15 08:01:30;;;;;;;;;33.50;31.75;;;;;;;;5075724;27;45681;-73
2022/09/15 08:03:55;;;;;;;;;31.50;30.25;;;;;;;;5075917;27;45562;-76
2022/09/15 08:06:21;;;;;;;;;35.75;32.50;;;;;;;;5075847;27;46208;-78
2022/09/15 08:08:47;;;;;;;;;29.75;29.00;;;;;;;;5075700;27;45319;-77
2022/09/15 08:11:15;;;;;;;;;25.75;25.50;;;;;;;;5075811;27;45359;-79
2022/09/15 08:13:40;;;;;;;;;26.50;26.50;;;;;;;;5073352;27;45450;-78
2022/09/15 08:16:06;;;;;;;;;26.00;25.50;;;;;;;;5076299;28;46401;-77
2022/09/15 08:18:31;;;;;;;;;29.75;29.75;;;;;;;;5075922;28;45177;-80
2022/09/15 08:20:56;;;;;;;;;28.75;28.50;;;;;;;;5076764;27;45305;-81
2022/09/15 08:23:22;;;;;;;;;22.00;22.00;;;;;;;;5077194;27;46052;-78
2022/09/15 08:25:50;;;;;;;;;25.75;25.75;;;;;;;;5079670;28;45780;-74
2022/09/15 08:28:15;;;;;;;;;26.75;26.75;;;;;;;;5076471;28;45389;-77
2022/09/15 08:30:40;;;;;;;;;25.75;25.75;;;;;;;;5077051;27;45425;-76
2022/09/15 08:33:05;;;;;;;;;21.00;20.50;;;;;;;;5084570;27;45260;-76
2022/09/15 08:35:32;;;;;;;;;28.50;27.75;;;;;;;;5088011;27;45653;-79
2022/09/15 08:37:57;;;;;;;;;19.75;19.75;;;;;;;;5079133;28;45472;-77
2022/09/15 08:40:27;;;;;;;;;19.00;18.75;;;;;;;;5079217;28;45372;-81
2022/09/15 08:42:54;;;;;;;;;18.00;18.00;;;;;;;;5079056;27;45610;-77
2022/09/15 08:45:23;;;;;;;;;21.50;21.25;;;;;;;;5080832;28;45474;-79
2022/09/15 08:47:54;;;;;;;;;26.00;26.00;;;;;;;;5085159;27;45210;-79
2022/09/15 08:50:29;;;;;;;;;18.00;18.00;;;;;;;;5080740;27;45290;-78
2022/09/15 08:53:01;;;;;;;;;16.25;15.25;;;;;;;;5078639;28;45267;-80
2022/09/15 08:55:46;;;;;;;;;13.00;13.00;;;;;;;;5081948;28;46117;-80
2022/09/15 08:58:23;;;;;;;;;14.75;14.75;;;;;;;;5079696;27;45254;-80
2022/09/15 09:00:50;;;;;;;;;13.50;12.50;;;;;;;;5081704;28;45298;-78
2022/09/15 09:03:35;;;;;;;;;11.50;11.50;;;;;;;;5081159;27;45384;-82
2022/09/15 09:06:00;;;;;;;;;12.50;12.50;;;;;;;;5079467;27;48424;-74
2022/09/15 09:08:38;;;;;;;;;8.25;8.25;;;;;;;;5079601;27;45386;-74
2022/09/15 09:11:03;;;;;;;;;10.00;10.00;;;;;;;;5061475;28;45381;-79
2022/09/15 09:13:35;;;;;;;;;8.25;8.25;;;;;;;;5080077;27;45697;-75
2022/09/15 09:16:19;;;;;;;;;10.00;10.00;;;;;;;;5080136;28;46393;-81
2022/09/15 09:18:57;;;;;;;;;10.00;10.00;;;;;;;;5079575;28;45962;-77
2022/09/15 09:21:29;;;;;;;;;7.75;7.75;;;;;;;;5082013;27;45431;-78
2022/09/15 09:24:15;;;;;;;;;8.25;8.25;;;;;;;;5083271;27;45476;-77
2022/09/15 09:26:40;;;;;;;;;7.75;7.75;;;;;;;;5082329;27;45416;-77
2022/09/15 09:29:09;;;;;;;;;7.25;7.25;;;;;;;;5081320;27;45362;-74
2022/09/15 09:31:35;;;;;;;;;8.00;8.00;;;;;;;;5081025;27;45284;-76
2022/09/15 09:34:13;;;;;;;;;7.50;7.50;;;;;;;;5079906;27;45247;-77
2022/09/15 09:36:39;;;;;;;;;6.50;6.50;;;;;;;;5080551;28;46652;-76
2022/09/15 09:39:04;;;;;;;;;11.75;11.75;;;;;;;;5079663;27;45346;-76
2022/09/15 09:41:40;;;;;;;;;6.00;6.00;;;;;;;;5078805;28;45411;-78
2022/09/15 09:44:09;;;;;;;;;6.00;6.00;;;;;;;;5083928;27;45408;-77
2022/09/15 09:46:34;;;;;;;;;5.00;5.00;;;;;;;;5084003;27;46293;-79
2022/09/15 09:49:19;;;;;;;;;5.50;5.50;;;;;;;;5080008;27;45328;-77
2022/09/15 09:51:50;;;;;;;;;6.75;6.75;;;;;;;;5079781;27;45328;-76
2022/09/15 09:54:16;;;;;;;;;5.25;5.25;;;;;;;;5077961;27;45570;-75
2022/09/15 09:56:43;;;;;;;;;7.25;7.25;;;;;;;;5076126;27;48217;-74
2022/09/15 09:59:26;;;;;;;;;7.50;7.50;;;;;;;;5078795;27;45288;-74
2022/09/15 10:02:04;;;;;;;;;6.75;6.75;;;;;;;;5082334;28;45296;-75
2022/09/15 10:04:29;;;;;;;;;8.00;8.00;;;;;;;;5079275;27;45329;-76
2022/09/15 10:06:54;;;;;;;;;5.50;5.50;;;;;;;;5077916;28;47543;-77
2022/09/15 10:09:20;;;;;;;;;11.00;11.00;;;;;;;;5079593;27;45259;-77
2022/09/15 10:11:51;;;;;;;;;22.50;22.50;;;;;;;;5079624;28;45206;-74
2022/09/15 10:14:16;;;;;;;;;8.00;8.00;;;;;;;;5078898;27;45525;-79
2022/09/15 10:16:42;;;;;;;;;6.50;6.50;;;;;;;;5078350;27;45396;-75
2022/09/15 10:19:11;;;;;;;;;8.00;8.00;;;;;;;;5077959;27;45237;-73
2022/09/15 10:21:37;;;;;;;;;6.50;6.00;;;;;;;;5079078;27;45275;-76
2022/09/15 10:24:21;;;;;;;;;16.00;14.50;;;;;;;;5078949;27;45515;-77
2022/09/15 10:26:47;;;;;;;;;7.25;7.25;;;;;;;;5078386;28;46463;-79
2022/09/15 10:29:14;;;;;;;;;6.00;6.00;;;;;;;;5077832;27;45374;-79
2022/09/15 10:31:39;;;;;;;;;4.00;4.00;;;;;;;;5077470;27;45305;-75
2022/09/15 10:34:23;;;;;;;;;6.25;6.25;;;;;;;;5078181;27;45394;-79
2022/09/15 10:36:48;;;;;;;;;5.25;5.25;;;;;;;;5077628;28;45452;-74
2022/09/15 10:39:19;;;;;;;;;3.75;3.75;;;;;;;;5077474;27;45443;-74
2022/09/15 10:41:55;;;;;;;;;5.00;5.00;;;;;;;;5076491;28;45272;-78
2022/09/15 10:44:23;;;;;;;;;5.00;5.00;;;;;;;;5076494;27;45448;-74
2022/09/15 10:47:07;;;;;;;;;9.00;8.25;;;;;;;;5077723;27;46096;-77
2022/09/15 10:49:32;;;;;;;;;6.50;6.50;;;;;;;;5079070;28;45430;-76
2022/09/15 10:52:24;;;;;;;;;5.00;5.00;;;;;;;;5079550;27;45512;-74
2022/09/15 10:54:57;;;;;;;;;6.00;6.00;;;;;;;;5054649;27;45246;-76
2022/09/15 10:57:44;;;;;;;;;6.00;6.00;;;;;;;;5078188;27;45410;-79
2022/09/15 11:00:11;;;;;;;;;5.50;5.50;;;;;;;;5078600;27;45444;-76
2022/09/15 11:02:39;;;;;;;;;5.25;5.25;;;;;;;;5078769;27;45240;-77
2022/09/15 11:05:10;;;;;;;;;4.00;4.00;;;;;;;;5082648;27;45726;-77
2022/09/15 11:07:45;;;;;;;;;5.00;5.00;;;;;;;;5079008;27;45739;-77
2022/09/15 11:10:16;;;;;;;;;4.25;4.25;;;;;;;;5081225;27;45219;-79
2022/09/15 11:13:07;;;;;;;;;4.75;4.75;;;;;;;;5081525;27;45277;-79
2022/09/15 11:15:41;;;;;;;;;8.75;8.75;;;;;;;;5079025;27;45506;-78
2022/09/15 11:18:25;;;;;;;;;6.00;6.00;;;;;;;;5075848;28;47339;-74
2022/09/15 11:20:57;;;;;;;;;13.50;13.25;;;;;;;;5078701;28;45190;-75
2022/09/15 11:23:37;;;;;;;;;4.50;4.50;;;;;;;;5078781;27;45364;-79
2022/09/15 11:26:13;;;;;;;;;5.00;5.00;;;;;;;;5078648;27;45582;-78
2022/09/15 11:28:44;;;;;;;;;7.00;7.00;;;;;;;;5079332;27;45420;-76
2022/09/15 11:31:15;;;;;;;;;6.25;6.25;;;;;;;;5081891;27;45240;-76
2022/09/15 11:33:44;;;;;;;;;6.00;6.00;;;;;;;;5084149;27;44721;-75
2022/09/15 11:36:16;;;;;;;;;6.25;6.25;;;;;;;;5081384;28;45193;-77
2022/09/15 11:38:52;;;;;;;;;6.00;6.00;;;;;;;;5079004;27;46639;-76
2022/09/15 11:41:39;;;;;;;;;4.50;4.50;;;;;;;;5076445;27;45427;-75
2022/09/15 11:44:05;;;;;;;;;5.00;5.00;;;;;;;;5074363;27;45399;-75
2022/09/15 11:46:47;;;;;;;;;5.25;5.25;;;;;;;;5058358;28;45521;-74
2022/09/15 11:49:16;;;;;;;;;6.00;6.00;;;;;;;;5058163;28;46051;-75
2022/09/15 11:51:49;;;;;;;;;7.50;7.50;;;;;;;;5076146;28;45215;-75
2022/09/15 11:54:24;;;;;;;;;5.75;5.75;;;;;;;;5076798;28;45326;-77
2022/09/15 11:56:50;;;;;;;;;7.50;7.50;;;;;;;;5077053;28;45297;-75
2022/09/15 11:59:15;;;;;;;;;5.25;5.25;;;;;;;;5076062;28;46156;-76
2022/09/15 12:01:53;;;;;;;;;7.75;7.75;;;;;;;;5076196;28;45358;-77
2022/09/15 12:04:22;;;;;;;;;5.00;5.00;;;;;;;;5076238;28;45434;-74
2022/09/15 12:06:54;;;;;;;;;7.00;7.00;;;;;;;;5075457;27;45482;-73
2022/09/15 12:09:20;;;;;;;;;6.50;6.50;;;;;;;;5057658;28;48001;-74
2022/09/15 12:11:47;;;;;;;;;12.75;12.75;;;;;;;;5075336;28;45330;-73
2022/09/15 12:14:18;;;;;;;;;7.75;7.75;;;;;;;;5075903;28;45446;-74
2022/09/15 12:16:43;;;;;;;;;7.25;7.25;;;;;;;;5075865;28;45641;-73
2022/09/15 12:19:14;;;;;;;;;5.00;5.00;;;;;;;;5075050;28;45964;-73
2022/09/15 12:21:57;;;;;;;;;10.00;10.00;;;;;;;;5075985;28;45308;-73
2022/09/15 12:24:22;;;;;;;;;3.50;3.50;;;;;;;;5076364;28;45441;-75
2022/09/15 12:26:47;;;;;;;;;5.00;5.00;;;;;;;;5077569;28;45493;-74
2022/09/15 12:29:39;;;;;;;;;5.25;5.25;;;;;;;;5076305;28;45313;-73
2022/09/15 12:32:18;;;;;;;;;5.25;5.25;;;;;;;;5071739;27;45339;-75
2022/09/15 12:34:56;;;;;;;;;5.50;5.50;;;;;;;;5076754;28;45234;-75
2022/09/15 12:37:23;;;;;;;;;4.25;4.25;;;;;;;;5058569;28;45690;-77
2022/09/15 12:39:48;;;;;;;;;4.00;4.00;;;;;;;;5076601;28;45683;-76
2022/09/15 12:42:14;;;;;;;;;6.75;6.75;;;;;;;;5058089;27;45498;-76
2022/09/15 12:44:45;;;;;;;;;7.00;7.00;;;;;;;;5077370;28;45398;-82
2022/09/15 12:47:23;;;;;;;;;11.25;11.25;;;;;;;;5078318;28;45390;-76
2022/09/15 12:49:49;;;;;;;;;5.50;5.50;;;;;;;;5060135;28;47148;-77
2022/09/15 12:52:15;;;;;;;;;4.25;4.25;;;;;;;;5080255;28;45335;-82
2022/09/15 12:54:41;;;;;;;;;4.50;4.50;;;;;;;;5077751;28;45300;-77
2022/09/15 12:57:17;;;;;;;;;7.00;7.00;;;;;;;;5059855;28;45628;-79
2022/09/15 12:59:43;;;;;;;;;7.00;7.00;;;;;;;;5076579;28;46730;-79
2022/09/15 13:02:28;;;;;;;;;6.50;6.50;;;;;;;;5076109;28;45389;-76
2022/09/15 13:04:54;;;;;;;;;7.75;7.75;;;;;;;;5057602;28;45249;-82
2022/09/15 13:07:19;;;;;;;;;6.75;6.75;;;;;;;;5057351;28;45462;-79
2022/09/15 13:09:58;;;;;;;;;8.00;8.00;;;;;;;;5075717;28;45292;-76
2022/09/15 13:12:28;;;;;;;;;13.50;13.50;;;;;;;;5075719;27;45373;-77
2022/09/15 13:14:55;;;;;;;;;18.00;18.00;;;;;;;;5057246;28;45402;-82
2022/09/15 13:17:24;;;;;;;;;13.00;13.00;;;;;;;;5078414;28;45260;-80
2022/09/15 13:19:55;;;;;;;;;7.75;7.75;;;;;;;;5078218;28;46219;-78
2022/09/15 13:22:28;;;;;;;;;8.25;8.25;;;;;;;;5076279;28;45363;-80
2022/09/15 13:24:56;;;;;;;;;12.00;12.00;;;;;;;;5078271;28;45401;-77
2022/09/15 13:27:27;;;;;;;;;11.25;11.25;;;;;;;;5078543;28;45291;-77
2022/09/15 13:30:08;;;;;;;;;10.00;10.00;;;;;;;;5063138;28;47073;-78
2022/09/15 13:32:42;;;;;;;;;9.75;9.75;;;;;;;;5082676;28;45335;-75
2022/09/15 13:35:13;;;;;;;;;7.00;7.00;;;;;;;;5080940;28;45517;-82
2022/09/15 13:37:38;;;;;;;;;6.00;6.00;;;;;;;;5081094;28;45536;-77
2022/09/15 13:40:04;;;;;;;;;8.75;8.75;;;;;;;;5080657;28;45271;-78
2022/09/15 13:42:30;;;;;;;;;9.50;9.50;;;;;;;;5078677;28;45312;-78
2022/09/15 13:44:55;;;;;;;;;10.25;10.25;;;;;;;;5078344;28;45375;-77
2022/09/15 13:47:20;;;;;;;;;9.75;9.75;;;;;;;;5078501;28;45467;-75
2022/09/15 13:50:14;;;;;;;;;6.50;6.50;;;;;;;;5079307;28;46291;-76
2022/09/15 13:52:54;;;;;;;;;7.50;7.50;;;;;;;;5051934;28;45329;-77
2022/09/15 13:55:26;;;;;;;;;10.50;10.50;;;;;;;;5085116;28;45343;-76
2022/09/15 13:57:53;;;;;;;;;11.00;11.00;;;;;;;;5060939;28;45536;-77
2022/09/15 14:00:23;;;;;;;;;12.75;12.75;;;;;;;;5067013;28;46403;-76
2022/09/15 14:02:53;;;;;;;;;7.00;7.00;;;;;;;;5085533;28;45306;-76
2022/09/15 14:05:20;;;;;;;;;11.25;11.25;;;;;;;;5086330;27;45416;-75
2022/09/15 14:07:50;;;;;;;;;11.50;11.50;;;;;;;;5084240;28;45422;-81
2022/09/15 14:10:21;;;;;;;;;10.25;10.25;;;;;;;;5080128;28;46006;-78
2022/09/15 14:12:47;;;;;;;;;12.75;12.75;;;;;;;;5082593;28;45299;-75
2022/09/15 14:15:16;;;;;;;;;13.25;13.25;;;;;;;;5084270;28;45276;-81
2022/09/15 14:17:45;;;;;;;;;13.50;13.50;;;;;;;;5079459;28;45366;-79
2022/09/15 14:20:22;;;;;;;;;11.25;11.25;;;;;;;;5078639;28;45349;-81
2022/09/15 14:22:49;;;;;;;;;12.00;12.00;;;;;;;;5079976;28;45339;-78
2022/09/15 14:25:15;;;;;;;;;12.00;12.00;;;;;;;;5080858;28;45268;-79
2022/09/15 14:27:45;;;;;;;;;14.00;14.00;;;;;;;;5061604;28;45283;-73
2022/09/15 14:30:15;;;;;;;;;14.75;14.75;;;;;;;;5084449;28;46360;-76
2022/09/15 14:32:43;;;;;;;;;14.00;14.00;;;;;;;;5061971;28;45378;-77
2022/09/15 14:35:12;;;;;;;;;14.50;14.00;;;;;;;;5064535;28;45254;-79
2022/09/15 14:37:38;;;;;;;;;12.00;12.00;;;;;;;;5078851;28;45524;-77
2022/09/15 14:40:17;;;;;;;;;17.50;17.50;;;;;;;;5077280;28;45839;-77